Time;durP1;ratioP1;P1;durP2;ratioP2;P2;SDS_P1;SDS_P2;PMS_P1;PMS_P2;Temp;Humidity;BMP_temperature;BMP_pressure;BME280_temperature;BME280_humidity;BME280_pressure;Samples;Min_cycle;Max_cycle;Signal;HPM_P1;HPM_P2
2021/06/09 06:31:43;;;;;;;20.90;12.88;;;29.10;93.80;;;;;;4317649;23;20338;-71
2021/06/09 06:34:10;;;;;;;24.63;13.05;;;29.50;93.00;;;;;;4955860;29;20208;-71
2021/06/09 06:36:38;;;;;;;23.27;13.68;;;29.40;92.90;;;;;;4956061;29;20212;-71
2021/06/09 06:39:06;;;;;;;23.90;13.52;;;29.80;91.80;;;;;;4956200;29;20220;-72
2021/06/09 06:41:33;;;;;;;23.23;12.85;;;30.00;91.90;;;;;;4956429;29;20212;-71
2021/06/09 06:43:59;;;;;;;24.45;13.25;;;29.70;91.80;;;;;;4956125;29;20303;-69
2021/06/09 06:46:26;;;;;;;23.83;12.32;;;29.90;91.40;;;;;;4956296;29;20700;-72
2021/06/09 06:48:55;;;;;;;21.48;12.98;;;29.70;90.50;;;;;;4955926;29;20230;-69
2021/06/09 06:51:22;;;;;;;22.00;12.57;;;29.50;90.60;;;;;;4955905;29;20274;-70
2021/06/09 06:53:51;;;;;;;19.30;11.13;;;29.80;89.50;;;;;;4955916;29;20208;-71
2021/06/09 06:56:19;;;;;;;19.42;11.75;;;29.70;90.30;;;;;;4953541;28;20219;-71
2021/06/09 06:58:49;;;;;;;17.23;11.10;;;29.90;88.90;;;;;;4955070;29;20268;-71
2021/06/09 07:01:15;;;;;;;19.52;12.55;;;30.00;87.00;;;;;;4953786;28;20204;-73
2021/06/09 07:03:43;;;;;;;21.98;12.45;;;29.80;87.30;;;;;;4955207;29;20247;-72
2021/06/09 07:06:11;;;;;;;20.80;11.55;;;29.80;87.70;;;;;;4939799;29;20275;-72
2021/06/09 07:08:38;;;;;;;16.80;10.90;;;29.50;88.10;;;;;;4937128;29;20255;-74
2021/06/09 07:11:05;;;;;;;17.45;11.15;;;30.00;85.70;;;;;;4955647;29;20241;-70
2021/06/09 07:13:32;;;;;;;18.25;10.15;;;30.50;86.30;;;;;;4955340;29;20204;-71
2021/06/09 07:16:01;;;;;;;16.15;10.07;;;30.50;87.50;;;;;;4941426;29;20217;-72
2021/06/09 07:18:29;;;;;;;16.70;9.38;;;31.10;84.60;;;;;;4936369;29;20240;-72
2021/06/09 07:20:56;;;;;;;15.85;9.15;;;31.10;82.00;;;;;;4935903;29;20259;-72
2021/06/09 07:23:24;;;;;;;17.02;9.30;;;30.80;83.10;;;;;;4936064;29;20224;-73
2021/06/09 07:25:51;;;;;;;15.13;9.45;;;30.30;83.00;;;;;;4935924;29;20263;-73
2021/06/09 07:28:19;;;;;;;14.48;9.23;;;30.60;83.00;;;;;;4952613;29;20236;-72
2021/06/09 07:30:46;;;;;;;15.63;8.38;;;30.60;82.20;;;;;;4954277;29;20212;-72
2021/06/09 07:33:14;;;;;;;11.02;7.47;;;31.10;83.50;;;;;;4955797;29;20208;-82
2021/06/09 07:35:41;;;;;;;11.55;7.65;;;31.50;80.40;;;;;;4942832;29;20603;-71
2021/06/09 07:38:13;;;;;;;10.60;6.78;;;31.80;79.70;;;;;;4935638;29;20315;-78
2021/06/09 07:40:43;;;;;;;11.38;6.63;;;32.20;80.60;;;;;;4953248;29;20262;-77
2021/06/09 07:43:13;;;;;;;10.48;6.57;;;32.40;79.60;;;;;;4954121;29;20738;-80
2021/06/09 07:45:42;;;;;;;13.10;6.72;;;32.10;78.90;;;;;;4943342;29;20233;-75
2021/06/09 07:48:09;;;;;;;11.75;7.07;;;32.20;78.50;;;;;;4935323;29;20240;-80
2021/06/09 07:50:39;;;;;;;9.38;6.80;;;32.20;78.40;;;;;;4952166;29;20649;-77
2021/06/09 07:53:07;;;;;;;14.18;6.95;;;32.30;78.70;;;;;;4952288;29;20207;-75
2021/06/09 07:55:34;;;;;;;11.73;6.80;;;32.90;76.20;;;;;;4943931;29;20232;-78
2021/06/09 07:58:04;;;;;;;12.88;6.72;;;33.00;76.30;;;;;;4934835;29;20237;-77
2021/06/09 08:00:31;;;;;;;11.10;6.88;;;33.20;76.20;;;;;;4951059;29;20208;-76
2021/06/09 08:02:57;;;;;;;11.52;6.68;;;32.80;75.60;;;;;;4954402;29;20216;-76
2021/06/09 08:05:25;;;;;;;11.27;7.00;;;32.80;76.20;;;;;;4944205;29;20219;-73
2021/06/09 08:07:52;;;;;;;11.40;6.35;;;32.80;75.70;;;;;;4935055;29;20237;-73
2021/06/09 08:10:19;;;;;;;12.52;6.97;;;33.10;77.00;;;;;;4949442;29;20204;-73
2021/06/09 08:12:49;;;;;;;13.40;7.20;;;33.20;73.20;;;;;;4953538;28;20259;-73
2021/06/09 08:15:16;;;;;;;10.95;6.78;;;33.30;72.20;;;;;;4945779;29;20213;-74
2021/06/09 08:17:45;;;;;;;11.75;6.85;;;33.10;74.60;;;;;;4934989;29;20209;-73
2021/06/09 08:20:13;;;;;;;13.32;7.15;;;33.30;72.70;;;;;;4946153;29;20295;-73
2021/06/09 08:22:43;;;;;;;11.73;7.03;;;33.20;73.70;;;;;;4935091;29;20579;-74
2021/06/09 08:25:10;;;;;;;10.80;6.45;;;33.10;72.50;;;;;;4935209;29;20255;-73
2021/06/09 08:27:37;;;;;;;11.68;7.05;;;33.10;73.40;;;;;;4934795;29;20244;-73
2021/06/09 08:30:04;;;;;;;15.88;7.53;;;33.30;71.50;;;;;;4936054;29;20220;-72
2021/06/09 08:32:32;;;;;;;14.95;6.93;;;33.30;70.90;;;;;;4935713;29;20358;-74
2021/06/09 08:34:58;;;;;;;13.57;6.93;;;32.60;74.70;;;;;;4935565;29;20219;-76
2021/06/09 08:37:26;;;;;;;11.32;6.50;;;32.60;73.70;;;;;;4935619;29;20682;-78
2021/06/09 08:39:53;;;;;;;11.43;6.30;;;32.20;75.00;;;;;;4935776;29;20225;-78
2021/06/09 08:42:20;;;;;;;11.25;6.85;;;31.70;75.90;;;;;;4935988;29;20208;-78
2021/06/09 08:44:49;;;;;;;12.05;6.82;;;31.60;76.80;;;;;;4935674;29;20219;-77
2021/06/09 08:47:16;;;;;;;12.52;6.50;;;31.40;77.70;;;;;;4935492;29;20327;-78
2021/06/09 08:49:45;;;;;;;11.30;6.25;;;31.20;75.90;;;;;;4940736;29;20315;-77
2021/06/09 08:52:12;;;;;;;12.45;6.88;;;31.10;78.20;;;;;;4955009;29;20685;-77
2021/06/09 08:54:43;;;;;;;14.85;7.30;;;31.20;76.70;;;;;;4951273;29;20686;-77
2021/06/09 08:57:12;;;;;;;13.05;6.20;;;31.10;78.30;;;;;;4936322;29;20668;-77
2021/06/09 08:59:38;;;;;;;11.18;6.68;;;31.30;76.00;;;;;;4936474;29;20235;-77
2021/06/09 09:02:04;;;;;;;13.15;6.82;;;31.40;74.10;;;;;;4935498;29;20213;-74
2021/06/09 09:04:33;;;;;;;15.77;7.53;;;31.40;76.10;;;;;;4935328;29;20217;-75
2021/06/09 09:07:01;;;;;;;15.30;7.63;;;32.00;74.70;;;;;;4935673;29;20219;-74
2021/06/09 09:09:27;;;;;;;17.02;7.28;;;32.30;73.80;;;;;;4935583;29;20228;-76
2021/06/09 09:11:54;;;;;;;11.73;6.50;;;32.50;72.80;;;;;;4935535;29;20212;-77
2021/06/09 09:14:20;;;;;;;14.65;7.63;;;32.40;73.80;;;;;;4935255;29;20208;-77
2021/06/09 09:17:05;;;;;;;16.80;7.40;;;32.40;72.40;;;;;;4935113;29;20247;-76
2021/06/09 09:19:34;;;;;;;14.45;8.05;;;32.70;70.20;;;;;;4934625;29;20291;-76
2021/06/09 09:22:02;;;;;;;15.02;7.55;;;32.70;68.40;;;;;;4935589;29;20216;-76
2021/06/09 09:24:50;;;;;;;15.55;6.70;;;32.50;67.50;;;;;;4935834;29;20216;-75
2021/06/09 09:27:26;;;;;;;26.80;7.65;;;32.20;72.40;;;;;;4932196;29;20268;-77
2021/06/09 09:30:04;;;;;;;12.73;6.75;;;32.30;71.20;;;;;;4938850;29;20230;-77
2021/06/09 09:32:30;;;;;;;12.00;6.93;;;32.20;72.10;;;;;;4939299;29;20216;-75
2021/06/09 09:35:06;;;;;;;13.57;6.07;;;32.30;71.70;;;;;;4938800;29;20755;-74
2021/06/09 09:37:35;;;;;;;11.98;6.70;;;32.30;72.10;;;;;;4939262;29;20242;-76
2021/06/09 09:40:14;;;;;;;13.40;5.82;;;32.30;69.60;;;;;;4938976;29;20228;-77
2021/06/09 09:42:41;;;;;;;14.02;6.25;;;32.20;73.10;;;;;;4938684;29;20671;-75
2021/06/09 09:45:22;;;;;;;12.23;6.47;;;32.00;73.70;;;;;;4944922;29;20734;-72
2021/06/09 09:48:14;;;;;;;12.43;7.43;;;31.80;71.50;;;;;;4937988;29;20393;-73
2021/06/09 09:50:43;;;;;;;10.18;6.53;;;32.10;72.50;;;;;;4950012;29;20306;-80
2021/06/09 09:53:18;;;;;;;13.48;7.70;;;31.70;73.40;;;;;;4954625;29;20299;-73
2021/06/09 09:56:00;;;;;;;12.20;7.00;;;31.30;74.60;;;;;;4937448;29;20208;-75
2021/06/09 09:58:27;;;;;;;13.35;6.85;;;30.90;74.10;;;;;;4956562;29;20232;-76
2021/06/09 10:01:07;;;;;;;10.77;6.00;;;30.80;74.70;;;;;;4956959;29;20576;-74
2021/06/09 10:03:36;;;;;;;12.60;6.13;;;31.00;77.90;;;;;;4951446;29;20560;-73
2021/06/09 10:06:19;;;;;;;8.90;6.15;;;30.90;77.30;;;;;;4937205;29;20209;-73
2021/06/09 10:08:47;;;;;;;11.07;6.53;;;30.30;76.40;;;;;;4937495;29;20272;-74
2021/06/09 10:11:15;;;;;;;9.88;6.40;;;30.30;77.50;;;;;;4937669;29;20313;-79
2021/06/09 10:13:42;;;;;;;9.88;6.13;;;30.00;78.80;;;;;;4933866;29;20205;-77
2021/06/09 10:16:30;;;;;;;11.07;6.45;;;29.70;77.90;;;;;;4954669;29;20222;-78
2021/06/09 10:19:02;;;;;;;10.80;6.00;;;29.80;79.10;;;;;;4956482;29;20228;-76
2021/06/09 10:21:28;;;;;;;10.35;5.90;;;29.60;79.90;;;;;;4956011;29;20258;-76
2021/06/09 10:24:02;;;;;;;9.05;6.18;;;29.20;82.90;;;;;;4956365;29;20296;-76
2021/06/09 10:26:29;;;;;;;11.82;7.40;;;28.80;82.50;;;;;;4956241;29;20208;-77
2021/06/09 10:29:01;;;;;;;11.07;7.53;;;28.50;79.60;;;;;;4956127;29;20253;-77
2021/06/09 10:31:28;;;;;;;11.88;6.80;;;28.50;80.10;;;;;;4956186;29;20583;-72
2021/06/09 10:33:56;;;;;;;12.40;6.80;;;28.30;81.40;;;;;;4955842;29;20663;-74
2021/06/09 10:36:22;;;;;;;11.95;7.03;;;28.20;81.20;;;;;;4955661;28;20254;-77
2021/06/09 10:38:49;;;;;;;8.80;6.30;;;28.00;82.50;;;;;;4956003;29;20782;-77
2021/06/09 10:41:17;;;;;;;12.77;6.25;;;28.20;83.60;;;;;;4953969;28;20212;-76
2021/06/09 10:43:47;;;;;;;10.70;6.68;;;28.10;85.70;;;;;;4952441;28;20599;-80
2021/06/09 10:46:18;;;;;;;11.43;7.07;;;28.10;85.20;;;;;;4956339;29;20208;-77
2021/06/09 10:48:47;;;;;;;9.30;6.65;;;28.00;85.60;;;;;;4956734;29;20235;-78
2021/06/09 10:51:13;;;;;;;12.38;6.20;;;28.00;85.70;;;;;;4949748;29;20625;-77
2021/06/09 10:53:40;;;;;;;10.55;6.40;;;28.00;86.40;;;;;;4954480;29;20223;-77
2021/06/09 10:56:07;;;;;;;9.30;6.13;;;27.90;84.60;;;;;;4955663;29;20663;-75
2021/06/09 10:58:35;;;;;;;9.13;5.85;;;27.90;87.00;;;;;;4955378;29;20582;-77
2021/06/09 11:01:01;;;;;;;11.82;6.97;;;27.90;88.30;;;;;;4950741;29;20209;-78
2021/06/09 11:03:28;;;;;;;10.13;6.50;;;27.70;87.10;;;;;;4952428;29;20211;-78
2021/06/09 11:05:54;;;;;;;10.63;6.07;;;27.60;88.30;;;;;;4955445;29;20204;-78
2021/06/09 11:08:20;;;;;;;9.63;6.47;;;27.70;88.20;;;;;;4955581;29;20239;-78
2021/06/09 11:10:49;;;;;;;10.07;7.07;;;27.80;85.20;;;;;;4954947;29;20208;-78
2021/06/09 11:13:31;;;;;;;10.25;6.78;;;27.70;85.40;;;;;;4955128;29;20212;-74
2021/06/09 11:16:06;;;;;;;10.93;6.10;;;27.70;85.50;;;;;;4951814;29;20208;-78
2021/06/09 11:18:40;;;;;;;7.88;6.20;;;27.60;85.70;;;;;;4954701;29;20299;-78
2021/06/09 11:21:07;;;;;;;8.50;5.10;;;27.50;86.90;;;;;;4949728;29;20204;-78
2021/06/09 11:23:37;;;;;;;10.23;7.03;;;27.70;89.90;;;;;;4952757;29;20246;-78
2021/06/09 11:26:06;;;;;;;10.38;6.18;;;27.70;86.30;;;;;;4955078;29;20676;-77
2021/06/09 11:28:37;;;;;;;10.23;6.93;;;27.70;86.30;;;;;;4955177;29;20298;-78
2021/06/09 11:31:06;;;;;;;11.98;6.97;;;27.50;86.70;;;;;;4949831;29;20208;-78
2021/06/09 11:33:42;;;;;;;13.93;6.90;;;27.50;86.70;;;;;;4952014;29;20216;-75
2021/06/09 11:36:28;;;;;;;9.80;5.95;;;27.40;87.40;;;;;;4955076;29;20368;-78
2021/06/09 11:38:57;;;;;;;13.27;7.10;;;27.60;88.30;;;;;;4939507;29;20644;-72
2021/06/09 11:41:26;;;;;;;11.93;6.97;;;27.70;87.50;;;;;;4936412;29;20608;-72
2021/06/09 11:43:55;;;;;;;7.90;6.00;;;27.80;87.40;;;;;;4936747;29;20216;-72
2021/06/09 11:46:24;;;;;;;10.93;7.07;;;27.70;88.30;;;;;;4938152;28;20292;-72
2021/06/09 11:48:56;;;;;;;8.68;6.47;;;27.80;85.80;;;;;;4944948;29;20254;-72
2021/06/09 11:51:26;;;;;;;10.45;7.10;;;27.50;87.70;;;;;;4956060;29;20216;-72
2021/06/09 11:53:54;;;;;;;14.77;6.50;;;27.60;87.50;;;;;;4955455;29;20670;-71
2021/06/09 11:56:23;;;;;;;10.25;6.97;;;27.50;88.60;;;;;;4949939;29;20556;-71
2021/06/09 11:58:52;;;;;;;18.95;8.35;;;27.40;88.30;;;;;;4936585;29;20265;-72
2021/06/09 12:01:20;;;;;;;12.30;7.40;;;27.30;89.10;;;;;;4936340;29;20205;-72
2021/06/09 12:04:09;;;;;;;12.00;6.93;;;27.20;90.00;;;;;;4936397;29;20291;-72
2021/06/09 12:06:41;;;;;;;12.40;5.85;;;27.30;89.40;;;;;;4936214;29;20552;-72
2021/06/09 12:09:07;;;;;;;11.55;6.97;;;27.30;90.90;;;;;;4936539;29;20699;-72
2021/06/09 12:11:36;;;;;;;12.88;7.05;;;27.40;90.00;;;;;;4936585;29;20219;-72
2021/06/09 12:14:16;;;;;;;9.50;6.15;;;27.40;90.00;;;;;;4936457;29;20545;-72
2021/06/09 12:16:44;;;;;;;11.77;6.45;;;27.40;90.60;;;;;;4942376;29;20292;-71
2021/06/09 12:19:26;;;;;;;7.85;5.70;;;27.50;90.60;;;;;;4935830;29;20268;-71
2021/06/09 12:21:59;;;;;;;12.63;6.35;;;27.80;89.20;;;;;;4936193;29;20219;-70
2021/06/09 12:24:25;;;;;;;11.10;7.00;;;28.00;89.30;;;;;;4936372;29;20213;-71
2021/06/09 12:26:59;;;;;;;11.35;6.53;;;28.00;88.20;;;;;;4936018;29;20220;-70
2021/06/09 12:29:27;;;;;;;11.20;7.03;;;28.00;87.90;;;;;;4936540;29;20245;-72
2021/06/09 12:31:55;;;;;;;17.27;7.55;;;28.10;87.80;;;;;;4936076;29;20723;-72
2021/06/09 12:34:25;;;;;;;11.43;7.50;;;28.00;87.90;;;;;;4935861;29;20205;-72
2021/06/09 12:36:53;;;;;;;9.65;7.07;;;27.90;88.80;;;;;;4935548;29;20212;-72
2021/06/09 12:39:21;;;;;;;22.30;8.10;;;27.40;88.70;;;;;;4935925;29;20737;-72
2021/06/09 12:41:49;;;;;;;15.02;7.20;;;27.40;89.10;;;;;;4946538;29;20206;-72
2021/06/09 12:44:16;;;;;;;11.18;7.50;;;27.50;87.50;;;;;;4950458;29;20209;-72
2021/06/09 12:46:50;;;;;;;15.25;7.18;;;27.50;88.70;;;;;;4936080;29;20217;-72
2021/06/09 12:49:30;;;;;;;8.40;6.00;;;27.40;90.00;;;;;;4935825;29;20243;-72
2021/06/09 12:52:15;;;;;;;17.13;7.30;;;27.30;90.20;;;;;;4936050;29;20221;-72
2021/06/09 12:54:54;;;;;;;9.45;6.65;;;27.40;89.40;;;;;;4936408;29;20213;-72
2021/06/09 12:57:31;;;;;;;10.50;7.25;;;27.30;90.60;;;;;;4935632;29;20263;-72
2021/06/09 12:59:58;;;;;;;10.02;6.40;;;27.50;87.90;;;;;;4934427;29;20232;-72
2021/06/09 13:02:24;;;;;;;11.88;7.05;;;27.70;88.70;;;;;;4935298;29;20671;-72
2021/06/09 13:04:52;;;;;;;8.85;6.43;;;27.70;85.80;;;;;;4935737;29;20212;-72
2021/06/09 13:07:23;;;;;;;9.18;6.13;;;27.80;89.30;;;;;;4935216;29;20213;-72
2021/06/09 13:09:57;;;;;;;8.30;5.65;;;27.80;89.30;;;;;;4935353;29;20624;-72
2021/06/09 13:12:28;;;;;;;10.10;7.45;;;27.80;90.00;;;;;;4935345;29;20216;-72
2021/06/09 13:14:55;;;;;;;9.40;6.97;;;27.90;86.30;;;;;;4935569;29;20205;-72
2021/06/09 13:17:21;;;;;;;10.68;6.65;;;28.10;86.40;;;;;;4935371;29;20213;-72
2021/06/09 13:19:48;;;;;;;9.48;7.13;;;28.20;89.00;;;;;;4935631;29;20256;-72
2021/06/09 13:22:18;;;;;;;10.07;6.85;;;28.40;87.10;;;;;;4935448;29;20215;-72
2021/06/09 13:24:45;;;;;;;8.27;6.28;;;28.30;86.90;;;;;;4935426;29;20213;-72
2021/06/09 13:27:13;;;;;;;9.02;6.40;;;28.50;86.60;;;;;;4934920;29;20223;-72
2021/06/09 13:29:41;;;;;;;7.50;4.88;;;28.30;86.20;;;;;;4935000;29;20241;-72
2021/06/09 13:32:14;;;;;;;6.32;4.20;;;28.50;85.60;;;;;;4935080;29;20307;-72
2021/06/09 13:34:44;;;;;;;11.90;5.55;;;28.80;84.90;;;;;;4935184;29;20264;-72
2021/06/09 13:37:15;;;;;;;5.47;4.10;;;29.10;85.80;;;;;;4934930;29;20232;-72
2021/06/09 13:39:46;;;;;;;6.32;4.10;;;29.30;85.80;;;;;;4934851;29;20573;-72
2021/06/09 13:42:15;;;;;;;6.05;4.18;;;29.40;84.20;;;;;;4935137;29;20568;-72
2021/06/09 13:44:43;;;;;;;10.20;4.32;;;29.50;83.90;;;;;;4935258;29;20217;-72
2021/06/09 13:47:10;;;;;;;7.35;4.82;;;29.50;83.30;;;;;;4935079;29;20208;-72
2021/06/09 13:49:41;;;;;;;4.45;3.70;;;29.30;83.70;;;;;;4935200;29;20244;-72
2021/06/09 13:52:09;;;;;;;7.68;4.43;;;29.20;83.50;;;;;;4935452;29;20316;-72
2021/06/09 13:54:38;;;;;;;5.30;4.40;;;29.10;81.80;;;;;;4934986;29;20288;-72
2021/06/09 13:57:13;;;;;;;6.45;3.70;;;29.10;80.00;;;;;;4935056;29;20213;-72
2021/06/09 13:59:51;;;;;;;5.03;3.55;;;29.20;80.20;;;;;;4934744;29;20734;-72
2021/06/09 14:02:21;;;;;;;3.35;2.90;;;29.00;82.90;;;;;;4934866;29;20255;-72
2021/06/09 14:04:47;;;;;;;4.40;3.67;;;29.20;85.70;;;;;;4934923;29;20230;-72
2021/06/09 14:07:18;;;;;;;4.47;3.60;;;29.40;81.10;;;;;;4934889;29;20209;-72
2021/06/09 14:09:53;;;;;;;7.72;3.10;;;29.40;82.30;;;;;;4935238;29;20244;-72
2021/06/09 14:12:22;;;;;;;4.03;3.00;;;29.40;83.90;;;;;;4938019;29;20219;-72
2021/06/09 14:14:48;;;;;;;6.40;3.50;;;29.50;83.50;;;;;;4938588;29;20209;-72
2021/06/09 14:17:17;;;;;;;9.02;3.00;;;29.50;82.30;;;;;;4938475;29;20221;-72
2021/06/09 14:19:54;;;;;;;5.78;3.13;;;29.40;82.40;;;;;;4938659;29;20229;-72
2021/06/09 14:22:31;;;;;;;7.53;2.80;;;29.40;80.60;;;;;;4938807;29;20646;-72
2021/06/09 14:25:09;;;;;;;11.43;3.10;;;29.50;83.20;;;;;;4938293;29;20215;-72
2021/06/09 14:28:01;;;;;;;5.40;2.55;;;29.10;80.10;;;;;;4938154;29;20660;-72
2021/06/09 14:30:32;;;;;;;11.27;3.13;;;29.10;81.10;;;;;;4938448;29;20565;-72
2021/06/09 14:33:24;;;;;;;5.15;3.05;;;29.10;82.70;;;;;;4938283;29;20660;-72
2021/06/09 14:35:59;;;;;;;3.60;2.67;;;29.00;80.00;;;;;;4934284;29;20217;-72
2021/06/09 14:38:28;;;;;;;3.72;3.00;;;29.00;80.60;;;;;;4938042;29;20703;-72
2021/06/09 14:40:59;;;;;;;3.38;2.58;;;28.60;79.10;;;;;;4937972;29;20209;-72
2021/06/09 14:43:30;;;;;;;3.08;2.28;;;28.50;80.40;;;;;;4938216;29;20216;-72
2021/06/09 14:45:59;;;;;;;4.40;3.00;;;28.10;80.90;;;;;;4938228;29;20205;-72
2021/06/09 14:51:15;;;;;;;2.92;2.30;;;27.70;79.20;;;;;;4937925;29;20676;-72
2021/06/09 14:53:43;;;;;;;4.65;2.55;;;27.60;81.40;;;;;;4938063;29;20305;-72
2021/06/09 14:56:09;;;;;;;11.05;4.05;;;27.40;82.10;;;;;;4938072;29;20300;-72
2021/06/09 14:58:39;;;;;;;6.03;3.00;;;27.40;84.10;;;;;;4937942;29;20233;-72
2021/06/09 15:01:05;;;;;;;3.60;2.63;;;27.40;83.70;;;;;;4937927;29;20213;-72
2021/06/09 15:03:32;;;;;;;6.90;2.47;;;27.40;82.10;;;;;;4937586;29;20211;-72
2021/06/09 15:05:58;;;;;;;3.42;2.60;;;27.20;83.20;;;;;;4937458;29;20687;-72
2021/06/09 15:08:25;;;;;;;4.15;3.33;;;27.20;83.90;;;;;;4937584;29;20236;-72
2021/06/09 15:10:51;;;;;;;6.18;2.95;;;27.30;81.40;;;;;;4937553;29;20813;-72
2021/06/09 15:13:19;;;;;;;4.15;3.15;;;27.40;81.20;;;;;;4937391;29;20208;-72
2021/06/09 15:15:47;;;;;;;3.53;2.70;;;27.50;81.10;;;;;;4937487;29;20247;-72
2021/06/09 15:18:13;;;;;;;3.63;2.55;;;27.50;79.00;;;;;;4937170;29;20700;-72
2021/06/09 15:20:40;;;;;;;7.25;2.05;;;27.30;79.10;;;;;;4937664;29;20216;-72
2021/06/09 15:23:06;;;;;;;7.70;2.05;;;27.40;81.30;;;;;;4936595;29;20209;-72
2021/06/09 15:25:33;;;;;;;4.15;1.95;;;27.50;81.00;;;;;;4937303;29;20300;-72
2021/06/09 15:27:59;;;;;;;3.15;1.77;;;27.50;82.50;;;;;;4937123;29;20239;-72
2021/06/09 15:30:26;;;;;;;2.90;1.90;;;27.40;80.50;;;;;;4937130;29;20300;-72
2021/06/09 15:32:53;;;;;;;5.60;2.55;;;27.50;82.10;;;;;;4937044;29;20217;-72
2021/06/09 15:35:20;;;;;;;2.60;2.08;;;27.50;81.70;;;;;;4937542;29;20212;-72
2021/06/09 15:37:46;;;;;;;2.85;1.90;;;27.50;78.50;;;;;;4937114;29;20578;-72
2021/06/09 15:40:13;;;;;;;1.80;1.50;;;27.50;77.40;;;;;;4936989;29;20699;-72
2021/06/09 15:42:40;;;;;;;3.75;1.77;;;27.50;82.00;;;;;;4936882;29;20209;-72
2021/06/09 15:45:07;;;;;;;2.53;1.83;;;27.50;78.60;;;;;;4934966;29;20212;-72
2021/06/09 15:47:33;;;;;;;2.75;1.67;;;27.50;79.90;;;;;;4946742;29;20204;-72
2021/06/09 15:50:01;;;;;;;1.90;1.50;;;27.40;78.80;;;;;;4946305;29;20239;-72
2021/06/09 15:52:28;;;;;;;2.40;1.30;;;27.40;79.30;;;;;;4948750;29;20204;-72
2021/06/09 15:54:55;;;;;;;3.22;2.03;;;27.40;79.50;;;;;;4942047;29;20239;-72
2021/06/09 15:57:25;;;;;;;4.10;1.83;;;27.40;77.60;;;;;;4949357;29;20553;-72
2021/06/09 15:59:52;;;;;;;2.78;1.40;;;27.40;78.10;;;;;;4953456;29;20790;-72
2021/06/09 16:02:19;;;;;;;1.70;1.27;;;27.30;80.80;;;;;;4943253;29;20201;-72
2021/06/09 16:04:46;;;;;;;2.33;1.38;;;27.20;80.00;;;;;;4940349;29;20211;-72
2021/06/09 16:07:13;;;;;;;3.13;1.35;;;27.20;80.80;;;;;;4949023;29;20264;-72
2021/06/09 16:09:40;;;;;;;2.92;1.70;;;27.20;79.40;;;;;;4943673;29;20311;-72
2021/06/09 16:12:08;;;;;;;2.35;1.45;;;27.10;78.90;;;;;;4941422;29;20576;-72
2021/06/09 16:14:34;;;;;;;2.17;1.60;;;27.00;78.20;;;;;;4942932;28;20204;-73
2021/06/09 16:17:01;;;;;;;3.55;1.40;;;26.90;78.40;;;;;;4949149;28;20671;-73
2021/06/09 16:19:29;;;;;;;1.65;1.02;;;26.90;77.90;;;;;;4945030;29;20228;-73
2021/06/09 16:21:55;;;;;;;1.70;1.30;;;26.80;79.50;;;;;;4943769;29;20208;-74
2021/06/09 16:24:23;;;;;;;2.17;1.50;;;26.80;79.10;;;;;;4944172;29;20266;-75
2021/06/09 16:26:49;;;;;;;3.55;1.30;;;26.70;77.70;;;;;;4948596;29;20215;-70
2021/06/09 16:29:15;;;;;;;1.25;1.13;;;26.60;78.00;;;;;;4943883;29;20696;-71
2021/06/09 16:31:42;;;;;;;1.70;1.40;;;26.60;77.70;;;;;;4944184;29;20212;-71
2021/06/09 16:34:08;;;;;;;1.52;1.20;;;26.60;76.50;;;;;;4936181;29;20682;-71
2021/06/09 16:36:34;;;;;;;2.15;1.30;;;26.70;79.40;;;;;;4935614;29;20223;-71
2021/06/09 16:39:00;;;;;;;2.45;1.23;;;26.60;78.50;;;;;;4935252;29;20243;-72
2021/06/09 16:41:28;;;;;;;1.80;1.23;;;26.60;79.00;;;;;;4935795;29;20252;-71
2021/06/09 16:43:54;;;;;;;4.85;1.50;;;26.60;81.00;;;;;;4935249;29;20580;-71
2021/06/09 16:46:21;;;;;;;5.47;1.40;;;26.70;78.70;;;;;;4954244;29;20270;-71
2021/06/09 16:48:48;;;;;;;1.80;1.20;;;26.70;77.40;;;;;;4954375;29;20243;-71
2021/06/09 16:51:14;;;;;;;2.55;1.15;;;26.60;78.10;;;;;;4937027;29;20217;-72
2021/06/09 16:53:40;;;;;;;0.90;0.77;;;26.50;79.60;;;;;;4935034;29;20232;-72
2021/06/09 16:56:09;;;;;;;1.40;0.90;;;26.40;78.10;;;;;;4934682;29;20215;-72
2021/06/09 17:01:24;;;;;;;1.20;1.00;;;26.20;76.40;;;;;;4935832;29;20723;-72
2021/06/09 17:03:51;;;;;;;1.70;0.98;;;26.30;78.40;;;;;;4935918;29;20208;-72
2021/06/09 17:06:17;;;;;;;1.27;0.90;;;26.30;78.60;;;;;;4934984;29;20263;-72
2021/06/09 17:08:44;;;;;;;2.40;1.38;;;26.30;78.80;;;;;;4935480;29;20248;-72
2021/06/09 17:11:10;;;;;;;1.48;1.08;;;26.40;77.10;;;;;;4954767;29;20216;-72
2021/06/09 17:13:38;;;;;;;1.65;1.00;;;26.30;76.50;;;;;;4935377;29;20697;-72
2021/06/09 17:16:05;;;;;;;1.27;1.00;;;26.40;77.80;;;;;;4936549;29;20343;-72
2021/06/09 17:18:32;;;;;;;1.83;1.27;;;26.30;77.50;;;;;;4934404;29;20235;-71
2021/06/09 17:20:59;;;;;;;1.08;0.90;;;26.30;78.30;;;;;;4933450;29;20220;-72
2021/06/09 17:23:26;;;;;;;1.27;0.90;;;26.00;78.60;;;;;;4935096;29;20201;-72
2021/06/09 17:25:52;;;;;;;1.02;0.73;;;25.90;79.20;;;;;;4935158;29;20213;-72
2021/06/09 17:28:19;;;;;;;1.35;0.70;;;25.80;79.50;;;;;;4935427;29;20240;-71
2021/06/09 17:30:47;;;;;;;1.52;0.85;;;25.80;77.30;;;;;;4935290;29;20204;-72
2021/06/09 17:33:13;;;;;;;2.65;0.80;;;26.00;78.10;;;;;;4935682;29;20211;-71
2021/06/09 17:35:39;;;;;;;3.28;0.82;;;26.00;77.70;;;;;;4935375;29;20213;-72
2021/06/09 17:38:06;;;;;;;2.22;1.00;;;26.00;78.40;;;;;;4935247;29;20233;-72
2021/06/09 17:40:33;;;;;;;1.65;0.70;;;26.00;77.20;;;;;;4933742;29;20204;-71
2021/06/09 17:43:00;;;;;;;2.63;1.10;;;25.80;78.70;;;;;;4934901;29;20212;-71
2021/06/09 17:45:26;;;;;;;1.40;1.00;;;25.70;78.00;;;;;;4942367;29;20698;-71
2021/06/09 17:47:54;;;;;;;2.20;0.93;;;25.70;78.10;;;;;;4937767;29;20734;-72
2021/06/09 17:50:22;;;;;;;1.05;0.70;;;25.50;76.90;;;;;;4955878;29;20216;-71
2021/06/09 17:52:48;;;;;;;0.85;0.70;;;25.60;76.80;;;;;;4957629;29;20216;-71
2021/06/09 17:55:15;;;;;;;0.90;0.68;;;25.70;76.90;;;;;;4958148;29;20211;-71
2021/06/09 17:57:43;;;;;;;1.73;0.70;;;25.80;76.60;;;;;;4957205;29;20212;-72
2021/06/09 18:00:12;;;;;;;1.05;0.80;;;25.80;77.00;;;;;;4957967;29;20212;-72
2021/06/09 18:03:03;;;;;;;1.05;0.60;;;25.80;77.40;;;;;;4957273;29;20212;-71
2021/06/09 18:05:30;;;;;;;1.48;0.88;;;25.70;77.90;;;;;;4957559;29;20211;-72
2021/06/09 18:07:57;;;;;;;0.95;0.70;;;25.60;77.40;;;;;;4957562;29;20615;-71
2021/06/09 18:10:24;;;;;;;4.07;1.17;;;25.70;83.20;;;;;;4957352;29;20666;-72
2021/06/09 18:12:51;;;;;;;1.90;0.77;;;25.60;84.40;;;;;;4954399;29;20205;-71
2021/06/09 18:15:18;;;;;;;0.98;0.82;;;25.70;84.70;;;;;;4938425;29;20260;-71
2021/06/09 18:17:44;;;;;;;1.20;1.00;;;25.70;86.20;;;;;;4956216;29;20220;-71
2021/06/09 18:20:11;;;;;;;2.05;0.82;;;25.60;86.20;;;;;;4957090;29;20311;-71
2021/06/09 18:22:39;;;;;;;1.50;1.00;;;25.60;86.20;;;;;;4957082;29;20290;-71
2021/06/09 18:25:06;;;;;;;2.08;0.90;;;25.70;86.70;;;;;;4957165;29;20734;-71
2021/06/09 18:27:33;;;;;;;1.95;1.10;;;25.60;86.20;;;;;;4957157;29;20311;-71
2021/06/09 18:29:59;;;;;;;0.90;0.70;;;25.40;86.90;;;;;;4957786;29;20236;-71
2021/06/09 18:32:25;;;;;;;2.20;0.93;;;25.30;87.90;;;;;;4957137;29;20308;-71
2021/06/09 18:34:52;;;;;;;2.63;0.90;;;25.10;89.30;;;;;;4957450;29;20212;-71
2021/06/09 18:37:18;;;;;;;1.23;0.80;;;24.90;90.00;;;;;;4957074;29;20270;-71
2021/06/09 18:39:47;;;;;;;1.02;0.73;;;24.80;90.40;;;;;;4957140;29;20260;-71
2021/06/09 18:42:17;;;;;;;7.28;1.75;;;24.50;90.80;;;;;;4947459;29;20205;-71
2021/06/09 18:44:44;;;;;;;2.75;1.02;;;24.40;91.20;;;;;;4942808;29;20291;-71
2021/06/09 18:47:11;;;;;;;2.67;0.68;;;24.30;91.50;;;;;;4943711;29;20327;-71
2021/06/09 18:49:37;;;;;;;1.13;0.80;;;24.30;91.40;;;;;;4949740;29;20252;-71
2021/06/09 18:52:04;;;;;;;1.50;0.85;;;24.20;91.30;;;;;;4945914;28;20227;-75
2021/06/09 18:54:31;;;;;;;3.75;1.33;;;24.10;91.40;;;;;;4947322;29;20220;-78
2021/06/09 18:56:59;;;;;;;2.55;0.80;;;24.20;91.40;;;;;;4953994;28;20549;-77
2021/06/09 18:59:26;;;;;;;2.53;0.73;;;24.20;91.50;;;;;;4945497;28;20241;-72
2021/06/09 19:01:53;;;;;;;2.72;0.80;;;24.30;91.70;;;;;;4946880;28;20230;-73
2021/06/09 19:04:20;;;;;;;1.58;0.82;;;24.30;92.20;;;;;;4949906;29;20203;-73
2021/06/09 19:06:47;;;;;;;1.23;0.80;;;24.30;91.90;;;;;;4941192;29;20579;-73
2021/06/09 19:09:14;;;;;;;1.55;0.80;;;24.30;91.50;;;;;;4948263;29;20243;-73
2021/06/09 19:11:42;;;;;;;0.77;0.70;;;24.30;91.30;;;;;;4947187;29;20221;-73
2021/06/09 19:14:11;;;;;;;0.98;0.73;;;24.20;91.60;;;;;;4943689;29;20655;-73
2021/06/09 19:16:39;;;;;;;1.08;0.65;;;23.90;91.90;;;;;;4944241;29;20212;-73
2021/06/09 19:19:06;;;;;;;2.40;1.05;;;23.90;91.80;;;;;;4954632;29;20228;-73
2021/06/09 19:21:33;;;;;;;1.15;0.73;;;23.80;91.90;;;;;;4947253;29;20197;-73
2021/06/09 19:24:02;;;;;;;1.33;0.80;;;23.50;92.10;;;;;;4946612;29;20209;-73
2021/06/09 19:26:29;;;;;;;1.52;0.70;;;23.40;92.40;;;;;;4939149;29;20720;-73